Time;durP1;ratioP1;P1;durP2;ratioP2;P2;SDS_P1;SDS_P2;PMS_P1;PMS_P2;Temp;Humidity;BMP_temperature;BMP_pressure;BME280_temperature;BME280_humidity;BME280_pressure;Samples;Min_cycle;Max_cycle;Signal;HPM_P1;HPM_P2
2022/09/17 00:00:15;;;;;;;12.90;1.83;;;11.50;99.90;;;;;;5100039;28;20039;-52
2022/09/17 00:02:43;;;;;;;14.98;2.10;;;11.40;99.90;;;;;;5106480;28;20288;-57
2022/09/17 00:05:09;;;;;;;14.82;2.60;;;11.30;99.90;;;;;;5098611;28;20484;-50
2022/09/17 00:07:35;;;;;;;14.35;1.98;;;11.30;99.90;;;;;;5070571;28;20064;-51
2022/09/17 00:10:00;;;;;;;12.17;1.60;;;11.30;99.90;;;;;;5090656;28;20074;-49
2022/09/17 00:12:26;;;;;;;8.53;1.37;;;11.20;99.90;;;;;;5102217;28;20793;-49
2022/09/17 00:14:52;;;;;;;16.57;2.43;;;11.20;99.90;;;;;;5091935;28;20554;-49
2022/09/17 00:17:17;;;;;;;15.63;1.95;;;11.10;99.90;;;;;;5090566;28;20157;-49
2022/09/17 00:19:43;;;;;;;13.68;1.48;;;11.10;99.90;;;;;;5088296;28;20504;-52
2022/09/17 00:22:08;;;;;;;20.30;1.90;;;11.00;99.90;;;;;;5076619;27;20051;-49
2022/09/17 00:24:34;;;;;;;19.60;2.13;;;11.00;99.90;;;;;;5088640;28;20122;-49
2022/09/17 00:26:59;;;;;;;12.70;1.60;;;10.90;99.90;;;;;;5101740;28;20127;-51
2022/09/17 00:29:25;;;;;;;12.03;1.93;;;10.90;99.90;;;;;;5098926;28;20339;-49
2022/09/17 00:31:51;;;;;;;18.08;2.67;;;10.80;99.90;;;;;;5105030;28;20551;-54
2022/09/17 00:34:16;;;;;;;20.60;1.30;;;10.80;99.90;;;;;;5094185;28;20039;-52
2022/09/17 00:36:42;;;;;;;12.52;1.20;;;10.80;99.90;;;;;;5111997;28;20088;-51
2022/09/17 00:39:10;;;;;;;22.10;3.63;;;10.80;99.90;;;;;;5094277;28;20870;-50
2022/09/17 00:41:37;;;;;;;16.02;2.70;;;10.80;99.90;;;;;;5103219;28;20115;-49
2022/09/17 00:44:38;;;;;;;14.43;1.65;;;10.80;99.90;;;;;;5114311;28;20032;-50
2022/09/17 00:47:03;;;;;;;20.92;2.72;;;10.70;99.90;;;;;;5091588;28;20299;-49
2022/09/17 00:49:30;;;;;;;16.08;3.38;;;10.70;99.90;;;;;;5080766;28;20591;-50
2022/09/17 00:52:08;;;;;;;20.92;2.25;;;10.70;99.90;;;;;;5114339;28;20039;-49
2022/09/17 00:54:38;;;;;;;14.82;1.65;;;10.70;99.90;;;;;;5106380;28;20047;-49
2022/09/17 00:57:03;;;;;;;14.68;1.50;;;10.70;99.90;;;;;;5093722;28;20043;-50
2022/09/17 00:59:29;;;;;;;26.90;2.75;;;10.70;99.90;;;;;;5107123;28;20036;-49
2022/09/17 01:01:55;;;;;;;10.50;2.15;;;10.70;99.90;;;;;;5092069;28;20088;-50
2022/09/17 01:04:24;;;;;;;20.88;3.58;;;10.70;99.90;;;;;;5113826;28;20059;-50
2022/09/17 01:07:05;;;;;;;25.27;3.03;;;10.70;99.90;;;;;;5085943;28;20036;-49
2022/09/17 01:09:53;;;;;;;23.52;2.67;;;10.70;99.90;;;;;;5086487;28;20040;-53
2022/09/17 01:12:25;;;;;;;18.13;2.83;;;10.80;99.90;;;;;;5073300;28;20102;-53
2022/09/17 01:15:14;;;;;;;16.75;2.22;;;10.80;99.90;;;;;;5086467;28;20040;-52
2022/09/17 01:17:50;;;;;;;12.93;2.28;;;10.80;99.90;;;;;;5088470;28;20480;-50
2022/09/17 01:21:04;;;;;;;21.95;2.85;;;10.80;99.90;;;;;;5097025;28;20039;-52
2022/09/17 01:24:01;;;;;;;18.10;2.85;;;10.80;99.90;;;;;;5092152;28;20059;-52
2022/09/17 01:26:30;;;;;;;15.30;2.58;;;10.80;99.90;;;;;;5101798;28;20043;-52
2022/09/17 01:29:09;;;;;;;11.02;2.13;;;10.80;99.90;;;;;;5111389;28;20043;-50
2022/09/17 01:31:56;;;;;;;14.25;3.22;;;10.80;99.90;;;;;;5104422;28;20043;-51
2022/09/17 01:34:56;;;;;;;15.13;2.43;;;10.70;99.90;;;;;;5078611;28;20036;-53
2022/09/17 01:37:33;;;;;;;17.60;1.83;;;10.70;99.90;;;;;;5104466;28;20051;-53
2022/09/17 01:40:09;;;;;;;13.50;1.95;;;10.70;99.90;;;;;;5107153;28;20039;-52
2022/09/17 01:42:43;;;;;;;12.63;2.22;;;10.60;99.90;;;;;;5111673;28;20114;-52
2022/09/17 01:45:28;;;;;;;19.80;3.22;;;10.60;99.90;;;;;;5093015;28;20041;-52
2022/09/17 01:48:00;;;;;;;13.30;2.17;;;10.50;99.90;;;;;;5090742;28;20042;-50
2022/09/17 01:50:36;;;;;;;22.02;3.25;;;10.50;99.90;;;;;;5100707;28;20144;-54
2022/09/17 01:53:02;;;;;;;15.57;1.92;;;10.50;99.90;;;;;;5112698;28;20032;-50
2022/09/17 01:55:31;;;;;;;;;;;10.40;99.90;;;;;;5101555;28;20036;-51
2022/09/17 01:58:12;;;;;;;10.27;1.83;;;10.40;99.90;;;;;;5091620;28;19974;-49
2022/09/17 02:00:41;;;;;;;20.38;2.03;;;10.30;99.90;;;;;;5105844;28;20039;-54
2022/09/17 02:03:19;;;;;;;13.98;1.55;;;10.30;99.90;;;;;;5089807;28;20032;-49
2022/09/17 02:05:57;;;;;;;17.23;2.22;;;10.30;99.90;;;;;;5081394;28;20033;-54
2022/09/17 02:08:27;;;;;;;16.88;2.28;;;10.30;99.90;;;;;;5072534;28;20117;-51
2022/09/17 02:11:08;;;;;;;17.02;2.55;;;10.20;99.90;;;;;;5090509;28;20412;-52
2022/09/17 02:13:45;;;;;;;18.63;2.30;;;10.30;99.90;;;;;;5088955;28;20032;-48
2022/09/17 02:16:27;;;;;;;12.75;1.98;;;10.20;99.90;;;;;;5095147;28;20043;-51
2022/09/17 02:19:09;;;;;;;13.70;2.60;;;10.20;99.90;;;;;;5101041;28;20488;-52
2022/09/17 02:21:53;;;;;;;7.82;1.77;;;10.20;99.90;;;;;;5090792;28;20083;-52
2022/09/17 02:24:34;;;;;;;13.93;2.00;;;10.30;99.90;;;;;;5070901;28;20629;-51
2022/09/17 02:27:12;;;;;;;12.75;1.42;;;10.30;99.90;;;;;;5087372;28;20085;-51
2022/09/17 02:29:42;;;;;;;15.98;2.38;;;10.30;99.90;;;;;;5108061;28;20040;-50
2022/09/17 02:32:08;;;;;;;8.80;1.42;;;10.30;99.90;;;;;;5094173;28;20054;-50
2022/09/17 02:34:34;;;;;;;14.55;1.80;;;10.20;99.90;;;;;;5086550;28;20040;-49
2022/09/17 02:37:00;;;;;;;12.52;1.75;;;10.20;99.90;;;;;;5097349;28;20447;-51
2022/09/17 02:39:26;;;;;;;11.65;1.48;;;10.20;99.90;;;;;;5100832;28;20119;-52
2022/09/17 02:42:00;;;;;;;14.77;2.08;;;10.20;99.90;;;;;;5091225;28;20039;-49
2022/09/17 02:44:49;;;;;;;14.23;2.00;;;10.20;99.90;;;;;;5094717;28;20035;-51
2022/09/17 02:47:34;;;;;;;23.05;1.60;;;10.20;99.90;;;;;;5098498;28;20043;-49
2022/09/17 02:50:13;;;;;;;13.85;0.93;;;10.20;99.90;;;;;;5093070;28;20048;-49
2022/09/17 02:53:15;;;;;;;10.52;1.55;;;10.20;99.90;;;;;;5108414;28;20063;-52
2022/09/17 02:55:54;;;;;;;12.18;2.13;;;10.20;99.90;;;;;;5100893;28;20039;-52
2022/09/17 02:58:27;;;;;;;10.68;1.23;;;10.20;99.90;;;;;;5101467;28;20036;-54
2022/09/17 03:00:56;;;;;;;6.55;0.90;;;10.20;99.90;;;;;;5091782;28;20051;-51
2022/09/17 03:03:34;;;;;;;9.95;1.30;;;10.20;99.90;;;;;;5100276;28;20504;-55
2022/09/17 03:06:00;;;;;;;14.60;1.85;;;10.30;99.90;;;;;;5092048;28;20489;-53
2022/09/17 03:08:34;;;;;;;16.10;1.85;;;10.30;99.90;;;;;;5100060;28;20050;-50
2022/09/17 03:11:00;;;;;;;9.90;1.40;;;10.30;99.90;;;;;;5111542;28;20050;-50
2022/09/17 03:13:25;;;;;;;12.97;0.77;;;10.30;99.90;;;;;;5100985;28;20036;-49
2022/09/17 03:15:51;;;;;;;12.83;1.67;;;10.30;99.90;;;;;;5092135;28;20036;-49
2022/09/17 03:18:16;;;;;;;8.70;1.13;;;10.40;99.90;;;;;;5091540;28;20036;-49
2022/09/17 03:20:42;;;;;;;12.37;2.30;;;10.30;99.90;;;;;;5090149;28;20043;-53
2022/09/17 03:23:07;;;;;;;18.60;2.58;;;10.40;99.90;;;;;;5093519;28;20047;-52
2022/09/17 03:25:33;;;;;;;15.73;1.63;;;10.40;99.90;;;;;;5111118;28;20478;-49
2022/09/17 03:27:59;;;;;;;9.97;1.83;;;10.40;99.90;;;;;;5107437;28;20035;-51
2022/09/17 03:30:24;;;;;;;10.60;1.20;;;10.50;99.90;;;;;;5094782;28;20307;-49
2022/09/17 03:32:50;;;;;;;11.37;1.30;;;10.50;99.90;;;;;;5110415;28;20028;-50
2022/09/17 03:35:15;;;;;;;9.47;1.10;;;10.50;99.90;;;;;;5090502;28;20173;-50
2022/09/17 03:37:41;;;;;;;9.23;1.13;;;10.50;99.90;;;;;;5092242;28;20036;-49
2022/09/17 03:40:07;;;;;;;5.63;1.30;;;10.50;99.90;;;;;;5089733;28;20123;-51
2022/09/17 03:42:33;;;;;;;10.57;1.60;;;10.40;99.90;;;;;;5090643;28;20477;-52
2022/09/17 03:44:58;;;;;;;7.03;1.50;;;10.40;99.90;;;;;;5103944;28;20043;-49
2022/09/17 03:47:24;;;;;;;9.20;1.47;;;10.40;99.90;;;;;;5096492;28;20071;-49
2022/09/17 03:49:51;;;;;;;9.67;1.13;;;10.40;99.90;;;;;;5099778;28;20044;-52
2022/09/17 03:52:16;;;;;;;8.60;1.55;;;10.30;99.90;;;;;;5098417;28;20054;-49
2022/09/17 03:54:42;;;;;;;10.00;1.52;;;10.30;99.90;;;;;;5100760;28;20027;-50
2022/09/17 03:57:07;;;;;;;5.90;1.00;;;10.30;99.90;;;;;;5099578;28;20515;-54
2022/09/17 03:59:33;;;;;;;8.80;0.87;;;10.20;99.90;;;;;;5102526;28;20373;-49
2022/09/17 04:01:58;;;;;;;6.60;1.10;;;10.20;99.90;;;;;;5099830;28;20119;-49
2022/09/17 04:04:24;;;;;;;11.30;1.17;;;10.20;99.90;;;;;;5084398;28;20331;-50
2022/09/17 04:06:50;;;;;;;7.72;1.30;;;10.10;99.90;;;;;;5102523;28;20036;-52
2022/09/17 04:09:15;;;;;;;6.53;0.60;;;10.10;99.90;;;;;;5093276;28;20454;-49
2022/09/17 04:11:41;;;;;;;5.37;1.07;;;10.10;99.90;;;;;;5088694;28;20036;-53
2022/09/17 04:14:06;;;;;;;7.20;1.00;;;10.10;99.90;;;;;;5089455;28;20119;-49
2022/09/17 04:16:32;;;;;;;5.60;0.60;;;10.10;99.90;;;;;;5074497;28;20128;-55
2022/09/17 04:18:57;;;;;;;7.83;0.43;;;10.10;99.90;;;;;;5069391;28;20275;-49
2022/09/17 04:21:23;;;;;;;7.70;0.93;;;10.00;99.90;;;;;;5069902;28;20037;-49
2022/09/17 04:23:49;;;;;;;7.73;1.27;;;10.00;99.90;;;;;;5084625;28;20462;-51
2022/09/17 04:26:15;;;;;;;6.90;1.08;;;10.00;99.90;;;;;;5090633;28;20044;-53
2022/09/17 04:28:40;;;;;;;4.03;0.67;;;10.00;99.90;;;;;;5089383;28;20058;-50
2022/09/17 04:31:06;;;;;;;11.30;0.90;;;9.90;99.90;;;;;;5090124;28;20356;-49
2022/09/17 04:33:31;;;;;;;16.03;1.43;;;10.00;99.90;;;;;;5080438;28;20036;-49
2022/09/17 04:35:57;;;;;;;8.10;1.27;;;10.00;99.90;;;;;;5069367;28;20270;-53
2022/09/17 04:38:23;;;;;;;7.60;0.60;;;10.00;99.90;;;;;;5070165;28;20044;-49
2022/09/17 04:40:50;;;;;;;6.95;0.80;;;10.00;99.90;;;;;;5069920;28;20036;-51
2022/09/17 04:43:16;;;;;;;7.75;1.35;;;10.00;99.90;;;;;;5073378;28;20500;-50
2022/09/17 04:45:44;;;;;;;12.98;1.15;;;10.10;99.90;;;;;;5090272;28;20040;-55
2022/09/17 04:48:10;;;;;;;12.95;1.60;;;10.10;99.90;;;;;;5098971;28;20154;-52
2022/09/17 04:50:36;;;;;;;16.73;1.93;;;10.10;99.90;;;;;;5099838;28;21192;-52
2022/09/17 04:53:01;;;;;;;12.57;1.63;;;10.10;99.90;;;;;;5089597;28;20451;-53
2022/09/17 04:55:27;;;;;;;11.47;1.73;;;10.20;99.90;;;;;;5089309;28;20279;-49
2022/09/17 04:57:52;;;;;;;6.33;0.53;;;10.10;99.90;;;;;;5089627;28;20127;-49
2022/09/17 05:00:20;;;;;;;13.60;1.08;;;10.20;99.90;;;;;;5089890;28;20123;-51
2022/09/17 05:02:47;;;;;;;12.75;1.80;;;10.20;99.90;;;;;;5089622;28;20057;-52
2022/09/17 05:05:14;;;;;;;14.93;1.55;;;10.20;99.90;;;;;;5074508;28;20040;-49
2022/09/17 05:07:40;;;;;;;12.18;1.63;;;10.20;99.90;;;;;;5069813;28;20037;-52
2022/09/17 05:10:07;;;;;;;10.93;1.35;;;10.20;99.90;;;;;;5069469;28;20040;-52
2022/09/17 05:12:32;;;;;;;12.88;1.25;;;10.30;99.90;;;;;;5069561;28;20032;-49
2022/09/17 05:14:58;;;;;;;7.28;0.90;;;10.20;99.90;;;;;;5077096;28;20549;-52
2022/09/17 05:17:23;;;;;;;10.67;1.73;;;10.30;99.90;;;;;;5090738;28;20123;-50
2022/09/17 05:19:49;;;;;;;8.57;1.03;;;10.30;99.90;;;;;;5092946;28;20066;-53
2022/09/17 05:22:16;;;;;;;6.23;1.13;;;10.30;99.90;;;;;;5093632;28;20047;-50
2022/09/17 05:24:41;;;;;;;12.70;1.75;;;10.20;99.90;;;;;;5092226;28;20100;-53
2022/09/17 05:27:07;;;;;;;10.93;0.97;;;10.30;99.90;;;;;;5088579;28;20460;-50
2022/09/17 05:29:33;;;;;;;11.52;0.82;;;10.30;99.90;;;;;;5076914;28;20039;-49
2022/09/17 05:31:58;;;;;;;10.33;0.90;;;10.30;99.90;;;;;;5103418;28;20032;-54
2022/09/17 05:34:24;;;;;;;9.67;1.30;;;10.30;99.90;;;;;;5092872;28;20039;-52
2022/09/17 05:36:50;;;;;;;15.48;1.85;;;10.40;99.90;;;;;;5090244;28;20036;-49
2022/09/17 05:39:15;;;;;;;9.70;1.13;;;10.40;99.90;;;;;;5093515;28;20040;-51
2022/09/17 05:41:41;;;;;;;11.60;1.27;;;10.40;99.90;;;;;;5092831;28;20043;-50
2022/09/17 05:44:06;;;;;;;6.80;1.07;;;10.50;99.90;;;;;;5092785;28;20516;-52
2022/09/17 05:46:32;;;;;;;9.70;1.27;;;10.60;99.90;;;;;;5080998;28;20485;-49
2022/09/17 05:48:57;;;;;;;14.30;2.10;;;10.60;99.90;;;;;;5072818;28;20094;-49
2022/09/17 05:51:23;;;;;;;14.57;1.63;;;10.70;99.90;;;;;;5072804;28;20042;-54
2022/09/17 05:53:49;;;;;;;8.95;1.90;;;10.80;99.90;;;;;;5075656;28;20515;-54
2022/09/17 05:56:14;;;;;;;9.80;1.57;;;10.80;99.90;;;;;;5099050;28;20110;-52
2022/09/17 05:58:40;;;;;;;12.20;1.67;;;11.00;99.90;;;;;;5103151;28;20113;-49
2022/09/17 06:01:06;;;;;;;11.40;1.10;;;11.10;99.90;;;;;;5096053;28;20420;-49
2022/09/17 06:03:31;;;;;;;9.77;1.97;;;11.30;99.90;;;;;;5074840;28;20067;-55
2022/09/17 06:05:58;;;;;;;11.23;1.50;;;11.50;99.90;;;;;;5072897;28;20397;-49
2022/09/17 06:08:25;;;;;;;9.85;1.02;;;11.70;99.90;;;;;;5073555;28;20052;-53
2022/09/17 06:10:51;;;;;;;7.78;1.05;;;12.00;99.90;;;;;;5072256;28;20429;-52
2022/09/17 06:13:17;;;;;;;15.15;1.77;;;12.10;99.90;;;;;;5105733;28;20042;-48
2022/09/17 06:15:48;;;;;;;11.85;1.60;;;12.20;99.90;;;;;;5112294;28;20549;-49
2022/09/17 06:18:14;;;;;;;6.40;0.85;;;12.40;99.90;;;;;;5107689;28;20044;-51
2022/09/17 06:20:40;;;;;;;7.63;1.00;;;12.60;99.90;;;;;;5083622;28;20047;-48
2022/09/17 06:23:05;;;;;;;8.50;1.37;;;12.70;99.90;;;;;;5102860;28;20115;-48
2022/09/17 06:25:31;;;;;;;6.22;0.63;;;12.70;99.90;;;;;;5097577;28;20028;-49
2022/09/17 06:27:57;;;;;;;11.50;1.02;;;12.70;99.90;;;;;;5102823;28;20032;-52
2022/09/17 06:30:22;;;;;;;12.40;1.42;;;12.80;99.90;;;;;;5089433;28;20032;-54
2022/09/17 06:32:48;;;;;;;5.72;0.70;;;12.80;99.90;;;;;;5092756;28;20044;-49
2022/09/17 06:35:14;;;;;;;5.78;0.60;;;12.70;99.90;;;;;;5091550;28;20075;-51
2022/09/17 06:37:40;;;;;;;8.90;1.02;;;12.70;99.90;;;;;;5091013;28;20067;-50
2022/09/17 06:40:07;;;;;;;9.10;0.97;;;12.60;99.90;;;;;;5091566;28;20043;-54
2022/09/17 06:42:32;;;;;;;6.80;0.60;;;12.40;99.90;;;;;;5092440;28;20040;-51
2022/09/17 06:44:58;;;;;;;5.80;0.40;;;12.30;99.90;;;;;;5090981;28;20043;-55
2022/09/17 06:47:24;;;;;;;10.10;1.20;;;12.20;99.90;;;;;;5091104;28;20065;-52
2022/09/17 06:49:50;;;;;;;9.23;0.80;;;12.10;99.90;;;;;;5090000;28;20040;-49
2022/09/17 06:52:16;;;;;;;8.50;1.17;;;12.10;99.90;;;;;;5092538;28;20088;-53
2022/09/17 06:54:41;;;;;;;7.57;1.13;;;12.10;99.90;;;;;;5094904;28;20412;-50
2022/09/17 06:57:08;;;;;;;10.30;1.15;;;12.20;99.90;;;;;;5091165;28;20388;-54
2022/09/17 06:59:33;;;;;;;10.33;0.90;;;12.30;99.90;;;;;;5089276;28;20041;-54
2022/09/17 07:01:59;;;;;;;11.48;0.90;;;12.50;99.90;;;;;;5091322;28;20051;-53
2022/09/17 07:04:25;;;;;;;10.27;0.70;;;12.60;99.90;;;;;;5091626;28;20055;-54
2022/09/17 07:06:50;;;;;;;5.00;0.67;;;12.80;99.90;;;;;;5091364;28;20040;-48
2022/09/17 07:09:16;;;;;;;14.53;1.23;;;12.90;99.90;;;;;;5093724;28;20808;-52
2022/09/17 07:11:41;;;;;;;14.40;1.15;;;13.00;99.90;;;;;;5090853;28;20449;-53
2022/09/17 07:14:07;;;;;;;5.85;0.90;;;13.00;99.90;;;;;;5090545;28;20101;-59
2022/09/17 07:16:34;;;;;;;10.03;0.90;;;13.00;99.90;;;;;;5091288;28;20083;-51
2022/09/17 07:19:00;;;;;;;4.60;0.65;;;12.90;99.90;;;;;;5087938;28;20040;-52
2022/09/17 07:21:26;;;;;;;7.07;1.05;;;12.90;99.90;;;;;;5081957;28;20039;-50
2022/09/17 07:23:51;;;;;;;10.52;1.05;;;12.80;99.90;;;;;;5092546;28;20032;-52
2022/09/17 07:26:17;;;;;;;9.60;1.05;;;12.70;99.90;;;;;;5080220;28;20220;-54
2022/09/17 07:28:43;;;;;;;7.75;0.75;;;12.70;99.90;;;;;;5091734;28;20054;-55
2022/09/17 07:31:10;;;;;;;8.98;1.60;;;12.80;99.90;;;;;;5079681;28;20055;-50
2022/09/17 07:33:36;;;;;;;4.32;0.60;;;12.90;99.90;;;;;;5091078;28;20036;-53
2022/09/17 07:36:06;;;;;;;;;;;13.10;99.90;;;;;;5091273;28;20047;-56
2022/09/17 07:38:33;;;;;;;5.65;1.08;;;13.30;99.90;;;;;;5095247;28;20398;-53
2022/09/17 07:40:59;;;;;;;;;;;13.40;99.90;;;;;;5091045;28;20543;-54
2022/09/17 07:43:26;;;;;;;5.90;0.60;;;13.50;99.90;;;;;;5088277;28;19916;-55
2022/09/17 07:45:52;;;;;;;4.32;0.75;;;13.60;99.90;;;;;;5086876;28;20043;-54
2022/09/17 07:48:19;;;;;;;;;;;13.80;99.90;;;;;;5093814;28;20048;-53
2022/09/17 07:50:44;;;;;;;11.02;0.82;;;14.00;99.90;;;;;;5089677;28;20297;-52
2022/09/17 07:53:10;;;;;;;4.47;0.50;;;14.00;99.90;;;;;;5089554;28;20044;-53
2022/09/17 07:55:36;;;;;;;9.43;1.20;;;14.10;99.90;;;;;;5090678;28;20086;-53
2022/09/17 07:58:01;;;;;;;6.10;0.57;;;14.20;99.90;;;;;;5089744;28;20040;-55
2022/09/17 08:00:27;;;;;;;5.85;0.60;;;14.30;99.90;;;;;;5097335;28;20131;-53
2022/09/17 08:02:54;;;;;;;4.22;0.47;;;14.40;99.90;;;;;;5086799;28;20055;-53
2022/09/17 08:05:19;;;;;;;3.65;0.38;;;14.50;99.90;;;;;;5090978;28;20463;-53
2022/09/17 08:07:52;;;;;;;8.93;0.73;;;14.50;99.90;;;;;;5083854;28;20124;-55
2022/09/17 08:10:20;;;;;;;5.47;0.40;;;14.50;99.90;;;;;;5077141;28;20051;-53
2022/09/17 08:12:53;;;;;;;10.93;0.55;;;14.60;99.90;;;;;;5087615;28;20070;-53
2022/09/17 08:15:18;;;;;;;4.93;0.30;;;14.70;99.90;;;;;;5090316;28;20111;-53
2022/09/17 08:17:45;;;;;;;5.07;0.60;;;14.80;99.90;;;;;;5075875;28;20107;-56
2022/09/17 08:20:12;;;;;;;6.25;0.70;;;14.80;99.90;;;;;;5074464;28;20437;-54
2022/09/17 08:22:37;;;;;;;4.97;0.50;;;14.90;99.90;;;;;;5088496;28;20075;-56
2022/09/17 08:25:04;;;;;;;8.18;0.45;;;15.10;99.90;;;;;;5086865;28;20080;-55
2022/09/17 08:27:30;;;;;;;3.70;0.40;;;15.20;99.90;;;;;;5090195;28;20077;-53
2022/09/17 08:29:56;;;;;;;4.72;0.40;;;15.40;99.90;;;;;;5095120;28;20040;-56
2022/09/17 08:32:22;;;;;;;6.40;0.30;;;15.60;99.80;;;;;;5100107;28;20387;-56
2022/09/17 08:34:47;;;;;;;6.07;0.60;;;15.60;99.40;;;;;;5089952;28;20067;-53
2022/09/17 08:37:13;;;;;;;5.07;0.52;;;15.60;99.50;;;;;;5074083;28;20052;-52
2022/09/17 08:39:38;;;;;;;9.95;0.50;;;15.30;99.00;;;;;;5085586;28;20032;-55
2022/09/17 08:42:34;;;;;;;1.77;0.20;;;15.10;99.50;;;;;;5089566;28;20039;-53
2022/09/17 08:45:03;;;;;;;5.68;0.90;;;14.80;99.90;;;;;;5086639;28;20294;-52
2022/09/17 08:47:42;;;;;;;6.88;0.60;;;14.60;99.90;;;;;;5072725;28;20039;-57
2022/09/17 08:50:31;;;;;;;3.45;0.30;;;14.40;99.90;;;;;;5074563;28;20032;-56
2022/09/17 08:53:25;;;;;;;3.13;0.43;;;14.30;99.90;;;;;;5073812;28;20127;-56
2022/09/17 08:56:14;;;;;;;6.53;0.65;;;14.30;99.90;;;;;;5083380;28;20052;-54
2022/09/17 08:59:07;;;;;;;3.75;0.40;;;14.40;99.90;;;;;;5084990;28;20040;-54
2022/09/17 09:01:47;;;;;;;3.53;0.52;;;14.50;99.90;;;;;;5087690;28;20036;-57
2022/09/17 09:04:50;;;;;;;5.38;0.50;;;14.50;99.90;;;;;;5080332;28;20036;-53
2022/09/17 09:07:26;;;;;;;5.07;0.30;;;14.50;99.90;;;;;;5083571;28;20114;-56
2022/09/17 09:10:07;;;;;;;3.10;0.20;;;14.40;99.90;;;;;;5084291;28;20461;-55
2022/09/17 09:12:35;;;;;;;2.28;0.20;;;14.40;99.90;;;;;;5074199;28;20111;-55
2022/09/17 09:15:03;;;;;;;6.63;1.05;;;14.40;99.90;;;;;;5085178;28;20531;-56
2022/09/17 09:17:40;;;;;;;2.75;0.30;;;14.50;99.90;;;;;;5079964;28;20658;-56
2022/09/17 09:20:15;;;;;;;4.22;0.55;;;14.60;99.90;;;;;;5096503;28;20047;-57
2022/09/17 09:22:50;;;;;;;3.25;0.20;;;14.60;99.90;;;;;;5095531;28;20044;-57
2022/09/17 09:25:26;;;;;;;1.40;0.20;;;14.60;99.90;;;;;;5088903;28;20041;-57
2022/09/17 09:28:22;;;;;;;3.53;0.20;;;14.70;99.90;;;;;;5085554;28;20300;-56
2022/09/17 09:31:10;;;;;;;5.78;0.60;;;14.90;99.90;;;;;;5090456;28;20044;-58
2022/09/17 09:33:40;;;;;;;4.82;0.32;;;15.10;99.90;;;;;;5093803;28;20085;-57
2022/09/17 09:36:10;;;;;;;3.75;0.30;;;15.30;99.90;;;;;;5092292;28;20051;-57
2022/09/17 09:38:55;;;;;;;4.20;0.30;;;15.40;99.80;;;;;;5097477;28;20112;-56
2022/09/17 09:41:31;;;;;;;4.13;0.30;;;15.50;99.50;;;;;;5083792;28;20503;-55
2022/09/17 09:44:09;;;;;;;1.80;0.35;;;15.60;99.60;;;;;;5100111;28;20070;-57
2022/09/17 09:47:09;;;;;;;4.38;0.22;;;15.70;99.20;;;;;;5093172;28;20060;-56
2022/09/17 09:49:45;;;;;;;4.07;0.45;;;15.90;99.40;;;;;;5092573;28;20032;-56
2022/09/17 09:52:50;;;;;;;3.83;0.20;;;16.10;99.50;;;;;;5091560;28;20051;-56
2022/09/17 09:55:27;;;;;;;2.75;0.68;;;16.10;98.60;;;;;;5100520;28;20544;-57
2022/09/17 09:58:04;;;;;;;;;;;16.00;98.50;;;;;;5091608;28;20039;-58
2022/09/17 10:00:37;;;;;;;3.40;0.40;;;15.80;98.70;;;;;;5099760;28;19991;-56
2022/09/17 10:03:11;;;;;;;3.03;0.65;;;15.70;99.20;;;;;;5092434;28;20527;-54
2022/09/17 10:05:37;;;;;;;3.42;0.15;;;15.70;99.80;;;;;;5101320;28;20043;-57
2022/09/17 10:08:13;;;;;;;2.30;0.30;;;15.80;99.80;;;;;;5086825;28;20043;-56
2022/09/17 10:10:54;;;;;;;3.40;0.30;;;15.80;99.60;;;;;;5092439;28;20051;-56
2022/09/17 10:13:20;;;;;;;2.28;0.40;;;15.80;99.10;;;;;;5090043;28;20055;-55
2022/09/17 10:15:45;;;;;;;1.98;0.20;;;15.70;99.20;;;;;;5094442;28;20032;-53
2022/09/17 10:18:19;;;;;;;1.25;0.50;;;15.70;99.30;;;;;;5090526;28;20039;-57
2022/09/17 10:21:00;;;;;;;2.97;0.50;;;15.50;99.30;;;;;;5092498;28;20054;-55
2022/09/17 10:23:32;;;;;;;5.13;0.88;;;15.50;99.60;;;;;;5090032;28;20043;-57
2022/09/17 10:25:58;;;;;;;2.88;0.20;;;15.60;99.90;;;;;;5111451;28;20063;-58
2022/09/17 10:28:32;;;;;;;7.85;0.73;;;15.70;99.50;;;;;;5092424;28;20496;-57
2022/09/17 10:31:02;;;;;;;6.72;0.30;;;15.90;98.70;;;;;;5093404;28;20081;-56
2022/09/17 10:33:30;;;;;;;5.63;0.30;;;15.90;99.20;;;;;;5091573;28;20406;-56
2022/09/17 10:36:12;;;;;;;4.85;0.45;;;15.70;99.00;;;;;;5097775;28;21563;-55
2022/09/17 10:38:40;;;;;;;2.90;0.25;;;15.50;99.30;;;;;;5087190;28;20385;-55
2022/09/17 10:41:20;;;;;;;3.05;0.20;;;15.40;99.40;;;;;;5091494;28;20072;-55
2022/09/17 10:43:47;;;;;;;3.42;0.20;;;15.50;99.90;;;;;;5091744;28;20043;-57
2022/09/17 10:46:20;;;;;;;3.67;0.60;;;15.60;99.90;;;;;;5105359;28;20028;-55
2022/09/17 10:48:57;;;;;;;3.58;0.85;;;15.90;99.90;;;;;;5088694;28;20036;-57
2022/09/17 10:51:24;;;;;;;2.53;0.22;;;16.10;99.90;;;;;;5091567;28;20040;-57
2022/09/17 10:54:22;;;;;;;2.92;0.20;;;16.30;99.40;;;;;;5078991;28;20033;-59
2022/09/17 10:56:50;;;;;;;;;;;16.50;99.20;;;;;;5086264;28;20408;-58
2022/09/17 10:59:39;;;;;;;5.22;0.80;;;16.60;98.80;;;;;;5088262;28;19969;-57
2022/09/17 11:02:29;;;;;;;2.05;0.25;;;16.70;98.50;;;;;;5091546;28;20044;-55
2022/09/17 11:05:01;;;;;;;1.17;0.20;;;16.60;98.10;;;;;;5091713;28;20063;-59
2022/09/17 11:07:40;;;;;;;4.90;0.30;;;16.60;98.10;;;;;;5089646;28;20059;-58
2022/09/17 11:10:23;;;;;;;4.47;0.40;;;16.60;97.90;;;;;;5089746;28;20040;-55
2022/09/17 11:12:58;;;;;;;5.63;0.30;;;16.70;97.70;;;;;;5090749;28;20039;-59
2022/09/17 11:15:38;;;;;;;5.25;0.30;;;16.80;98.30;;;;;;5096542;28;20032;-57
2022/09/17 11:18:16;;;;;;;3.47;0.50;;;17.00;98.10;;;;;;5097025;28;20040;-58
2022/09/17 11:20:56;;;;;;;4.85;0.30;;;17.20;97.70;;;;;;5091085;28;20043;-57
2022/09/17 11:23:29;;;;;;;6.15;0.75;;;17.30;97.90;;;;;;5089264;28;20035;-58
2022/09/17 11:25:59;;;;;;;6.43;0.50;;;17.50;97.90;;;;;;5101343;28;20040;-58
2022/09/17 11:28:34;;;;;;;4.20;0.60;;;17.60;97.50;;;;;;5094113;28;20051;-58
2022/09/17 11:31:25;;;;;;;4.30;0.52;;;17.70;96.90;;;;;;5089801;28;20492;-58
2022/09/17 11:34:21;;;;;;;8.18;0.80;;;17.90;96.20;;;;;;5090154;28;20040;-58
2022/09/17 11:37:01;;;;;;;3.33;0.40;;;18.00;96.10;;;;;;5095302;28;20093;-60
2022/09/17 11:39:46;;;;;;;4.82;0.30;;;18.10;96.40;;;;;;5090948;28;20032;-60
2022/09/17 11:42:17;;;;;;;3.90;0.30;;;18.30;96.80;;;;;;5084717;28;20297;-57
2022/09/17 11:45:01;;;;;;;6.40;0.55;;;18.30;96.10;;;;;;5077039;28;20497;-56
2022/09/17 11:47:38;;;;;;;2.63;0.50;;;17.90;95.60;;;;;;5092710;28;20090;-56
2022/09/17 11:50:22;;;;;;;5.75;0.73;;;17.20;95.30;;;;;;5086289;28;20054;-56
2022/09/17 11:53:16;;;;;;;2.05;0.25;;;16.50;95.80;;;;;;5087530;28;20051;-58
2022/09/17 11:56:23;;;;;;;3.78;0.40;;;16.00;96.70;;;;;;5089124;28;20124;-57
2022/09/17 11:59:20;;;;;;;6.30;0.52;;;15.60;97.20;;;;;;5082546;28;20036;-59
2022/09/17 12:01:56;;;;;;;3.63;0.32;;;15.10;97.90;;;;;;5051678;28;20048;-58
2022/09/17 12:04:44;;;;;;;4.30;0.70;;;14.90;98.10;;;;;;5085825;28;20054;-56
2022/09/17 12:07:43;;;;;;;3.78;0.30;;;14.70;98.80;;;;;;5095810;28;20094;-57
2022/09/17 12:10:30;;;;;;;5.32;0.40;;;14.50;99.30;;;;;;5094843;28;20106;-58
2022/09/17 12:13:20;;;;;;;3.53;0.65;;;14.40;99.70;;;;;;5074071;28;20032;-57
2022/09/17 12:15:49;;;;;;;8.00;0.60;;;14.30;99.60;;;;;;5084139;28;20042;-54
2022/09/17 12:18:39;;;;;;;3.92;0.40;;;14.30;99.70;;;;;;5070177;28;20448;-59
2022/09/17 12:21:07;;;;;;;19.33;1.40;;;14.30;99.90;;;;;;5078943;28;20563;-57
2022/09/17 12:23:44;;;;;;;15.60;1.98;;;14.60;99.90;;;;;;5106183;28;20043;-55
2022/09/17 12:26:35;;;;;;;14.02;2.55;;;14.70;99.70;;;;;;5090621;28;20164;-54
2022/09/17 12:29:30;;;;;;;6.20;0.57;;;14.80;99.30;;;;;;5090251;28;20691;-55
2022/09/17 12:32:24;;;;;;;6.00;0.70;;;14.80;99.40;;;;;;5100038;28;20428;-55
2022/09/17 12:35:26;;;;;;;5.88;0.30;;;14.80;99.40;;;;;;5068212;28;20123;-58
2022/09/17 12:38:21;;;;;;;5.80;0.70;;;14.90;99.40;;;;;;5104641;28;20035;-56
2022/09/17 12:41:13;;;;;;;11.25;0.55;;;15.00;99.40;;;;;;5069651;28;20493;-53
2022/09/17 12:43:48;;;;;;;5.32;0.30;;;15.00;99.70;;;;;;5069296;28;20051;-55
2022/09/17 12:46:21;;;;;;;7.35;0.82;;;15.00;99.60;;;;;;5088883;28;20662;-56
2022/09/17 12:49:00;;;;;;;6.43;0.68;;;15.00;99.50;;;;;;5110281;28;20090;-58
2022/09/17 12:51:50;;;;;;;5.35;1.58;;;15.10;99.80;;;;;;5105628;28;20048;-56
2022/09/17 12:54:35;;;;;;;3.85;0.70;;;15.10;99.90;;;;;;5089638;28;20050;-58
2022/09/17 12:57:26;;;;;;;7.13;0.70;;;15.20;99.90;;;;;;5095881;28;20107;-58
2022/09/17 13:00:12;;;;;;;4.57;0.47;;;15.30;99.90;;;;;;5089780;28;20119;-59
2022/09/17 13:02:55;;;;;;;4.90;0.55;;;15.40;99.90;;;;;;5108342;28;20039;-57
2022/09/17 13:05:44;;;;;;;7.45;0.80;;;15.60;99.60;;;;;;5107320;28;20407;-57
2022/09/17 13:08:38;;;;;;;8.52;1.08;;;15.80;99.90;;;;;;5103255;28;20043;-56
2022/09/17 13:11:37;;;;;;;14.68;1.05;;;16.10;99.80;;;;;;5095030;28;20035;-59
2022/09/17 13:14:12;;;;;;;11.23;0.85;;;16.40;99.60;;;;;;5090989;28;20443;-59